Time;durP1;ratioP1;P1;durP2;ratioP2;P2;SDS_P1;SDS_P2;PMS_P1;PMS_P2;Temp;Humidity;BMP_temperature;BMP_pressure;BME280_temperature;BME280_humidity;BME280_pressure;Samples;Min_cycle;Max_cycle;Signal;HPM_P1;HPM_P2
2022/06/09 00:01:48;;;;;;;7.67;4.78;;;;;;;24.00;50.05;153690.09;1714919;83;21145;-58
2022/06/09 00:04:28;;;;;;;9.53;5.25;;;;;;;23.99;49.86;153687.48;1714795;83;21024;-58
2022/06/09 00:07:03;;;;;;;8.60;4.85;;;;;;;23.79;50.08;153636.45;1715255;83;21042;-57
2022/06/09 00:09:33;;;;;;;8.13;4.40;;;;;;;23.70;50.11;153615.47;1714969;83;21042;-59
2022/06/09 00:12:00;;;;;;;12.45;4.17;;;;;;;23.66;50.25;153605.02;1714422;83;21078;-57
2022/06/09 00:14:29;;;;;;;9.80;3.98;;;;;;;23.50;50.71;153563.11;1714589;83;20994;-57
2022/06/09 00:16:56;;;;;;;7.78;3.60;;;;;;;23.41;51.25;153542.19;1714630;83;21423;-58
2022/06/09 00:19:24;;;;;;;7.78;4.08;;;;;;;23.50;51.26;153564.44;1714742;83;21105;-59
2022/06/09 00:21:51;;;;;;;8.43;4.20;;;;;;;23.57;51.02;153581.47;1714895;83;21037;-57
2022/06/09 00:24:18;;;;;;;8.73;4.00;;;;;;;23.58;50.87;153584.09;1714984;83;21006;-57
2022/06/09 00:26:45;;;;;;;8.50;4.33;;;;;;;23.63;50.77;153595.83;1714942;83;21487;-57
2022/06/09 00:29:13;;;;;;;7.20;4.87;;;;;;;23.69;50.48;153612.86;1714971;83;21054;-58
2022/06/09 00:31:40;;;;;;;10.15;5.37;;;;;;;23.72;50.34;153620.70;1714945;83;21033;-58
2022/06/09 00:34:07;;;;;;;11.12;4.45;;;;;;;23.77;50.08;153632.50;1714945;83;21112;-58
2022/06/09 00:36:34;;;;;;;8.68;4.95;;;;;;;23.70;50.19;153615.47;1715023;83;20982;-57
2022/06/09 00:39:02;;;;;;;10.85;5.20;;;;;;;23.66;50.22;153605.02;1714967;83;21209;-58
2022/06/09 00:41:29;;;;;;;12.18;5.65;;;;;;;23.62;50.09;153594.55;1714714;83;21049;-58
2022/06/09 00:44:20;;;;;;;14.87;6.12;;;;;;;23.46;50.32;153555.27;1715030;83;21081;-57
2022/06/09 00:46:59;;;;;;;18.00;7.35;;;;;;;23.31;51.00;153517.31;1714938;83;21119;-57
2022/06/09 00:49:38;;;;;;;17.82;8.60;;;;;;;23.24;51.49;153497.64;1715219;83;20994;-58
2022/06/09 00:52:06;;;;;;;17.52;9.03;;;;;;;23.10;52.09;153462.31;1714937;83;21260;-58
2022/06/09 00:54:42;;;;;;;16.20;8.45;;;;;;;22.95;52.62;153424.38;1715087;83;21089;-59
2022/06/09 00:57:17;;;;;;;18.77;8.28;;;;;;;22.84;52.81;153398.19;1715320;83;21025;-57
2022/06/09 00:59:47;;;;;;;14.98;6.62;;;;;;;22.79;53.08;153383.83;1715162;83;21089;-57
2022/06/09 01:02:15;;;;;;;10.23;6.05;;;;;;;22.67;53.33;153353.73;1715202;83;21037;-57
2022/06/09 01:04:43;;;;;;;17.77;9.10;;;;;;;22.61;53.67;153339.34;1715054;83;21486;-57
2022/06/09 01:07:12;;;;;;;19.07;8.00;;;;;;;22.57;54.20;153330.16;1715123;83;21499;-58
2022/06/09 01:09:39;;;;;;;19.85;7.35;;;;;;;22.33;55.30;153269.95;1715380;83;21476;-59
2022/06/09 01:12:31;;;;;;;22.42;7.03;;;;;;;22.00;56.13;153186.28;1715144;83;21577;-57
2022/06/09 01:15:15;;;;;;;14.70;7.22;;;;;;;21.71;57.00;153113.02;1715096;83;21542;-57
2022/06/09 01:18:01;;;;;;;14.00;6.80;;;;;;;21.48;57.76;153054.17;1710149;83;21431;-58
2022/06/09 01:20:48;;;;;;;11.88;6.12;;;;;;;21.30;58.20;153008.38;1709923;83;21057;-57
2022/06/09 01:23:39;;;;;;;10.32;6.42;;;;;;;21.05;59.22;152945.66;1709585;84;21026;-56
2022/06/09 01:26:34;;;;;;;11.63;5.62;;;;;;;20.84;60.16;152893.38;1709711;84;21053;-59
2022/06/09 01:29:32;;;;;;;21.02;6.03;;;;;;;20.69;60.60;152854.16;1709800;83;21021;-58
2022/06/09 01:32:29;;;;;;;14.13;5.53;;;;;;;20.57;61.23;152824.11;1709538;83;21823;-56
2022/06/09 01:35:18;;;;;;;15.65;7.15;;;;;;;20.58;61.72;152828.00;1709832;83;20998;-58
2022/06/09 01:37:47;;;;;;;12.13;7.00;;;;;;;20.56;62.30;152822.78;1709767;84;21113;-57
2022/06/09 01:40:16;;;;;;;13.53;6.92;;;;;;;20.50;63.22;152805.80;1710035;83;21105;-57
2022/06/09 01:42:48;;;;;;;13.88;7.03;;;;;;;20.39;63.67;152779.69;1709722;83;21045;-58
2022/06/09 01:45:37;;;;;;;11.75;6.62;;;;;;;20.26;64.19;152747.03;1709845;83;21257;-58
2022/06/09 01:48:17;;;;;;;18.12;8.15;;;;;;;20.13;64.90;152713.05;1709769;84;21069;-57
2022/06/09 01:51:00;;;;;;;11.25;6.55;;;;;;;19.99;65.83;152679.08;1710798;83;21203;-58
2022/06/09 01:53:35;;;;;;;14.53;6.97;;;;;;;19.92;66.39;152660.81;1707306;84;21022;-58
2022/06/09 01:56:25;;;;;;;12.43;6.22;;;;;;;19.82;67.02;152634.66;1707309;83;20939;-57
2022/06/09 01:59:11;;;;;;;12.78;6.58;;;;;;;19.70;67.86;152605.91;1707279;83;21078;-58
2022/06/09 02:01:42;;;;;;;13.60;6.80;;;;;;;19.65;68.69;152592.86;1706209;83;21554;-57
2022/06/09 02:04:14;;;;;;;11.95;5.50;;;;;;;19.60;69.44;152581.09;1707048;83;21058;-58
2022/06/09 02:06:41;;;;;;;15.00;6.60;;;;;;;19.54;70.08;152564.13;1707135;83;21018;-63
2022/06/09 02:09:08;;;;;;;15.72;6.50;;;;;;;19.47;70.75;152548.47;1707219;83;21042;-63
2022/06/09 02:11:49;;;;;;;14.43;6.60;;;;;;;19.46;71.29;152545.84;1707143;83;21306;-63
2022/06/09 02:14:17;;;;;;;11.28;6.80;;;;;;;19.43;71.96;152538.03;1707044;84;21026;-63
2022/06/09 02:16:45;;;;;;;12.65;5.80;;;;;;;19.36;72.61;152519.77;1707411;83;21085;-63
2022/06/09 02:19:12;;;;;;;11.25;5.83;;;;;;;19.37;73.04;152522.38;1707362;83;21033;-63
2022/06/09 02:21:40;;;;;;;11.80;6.17;;;;;;;19.44;73.07;152539.31;1707421;84;21069;-64
2022/06/09 02:24:08;;;;;;;9.88;5.85;;;;;;;19.46;73.11;152544.56;1707362;83;21222;-64
2022/06/09 02:26:35;;;;;;;11.50;5.47;;;;;;;19.54;73.16;152564.13;1707319;84;21082;-64
2022/06/09 02:29:03;;;;;;;9.70;5.47;;;;;;;19.67;72.86;152598.08;1707474;83;21093;-64
2022/06/09 02:31:30;;;;;;;10.25;5.70;;;;;;;19.79;72.12;152628.11;1707570;84;20946;-64
2022/06/09 02:33:58;;;;;;;11.03;5.75;;;;;;;19.83;71.87;152638.56;1707213;83;21113;-64
2022/06/09 02:36:25;;;;;;;9.08;5.35;;;;;;;19.92;71.37;152660.81;1707369;84;21258;-64
2022/06/09 02:38:52;;;;;;;8.20;6.00;;;;;;;20.01;70.63;152684.34;1707211;83;21440;-64
2022/06/09 02:41:19;;;;;;;14.80;5.87;;;;;;;20.04;70.06;152690.84;1707355;83;21057;-64
2022/06/09 02:43:46;;;;;;;13.15;6.65;;;;;;;20.09;69.74;152702.61;1707307;84;21002;-64
2022/06/09 02:46:13;;;;;;;13.62;6.28;;;;;;;20.16;69.29;152720.88;1707502;84;21015;-64
2022/06/09 02:48:41;;;;;;;14.38;6.70;;;;;;;20.22;68.89;152736.55;1707329;83;21556;-64
2022/06/09 02:51:27;;;;;;;10.60;6.50;;;;;;;20.25;68.71;152744.42;1708423;83;21106;-64
2022/06/09 02:54:00;;;;;;;16.65;6.62;;;;;;;20.28;68.56;152752.25;1709642;83;21482;-63
2022/06/09 02:56:28;;;;;;;11.60;6.20;;;;;;;20.37;68.37;152773.14;1715038;83;21549;-64
2022/06/09 02:58:56;;;;;;;14.13;5.92;;;;;;;20.47;67.69;152799.28;1709887;83;21065;-64
2022/06/09 03:01:25;;;;;;;9.13;5.58;;;;;;;20.51;67.21;152809.73;1709880;83;21517;-64
2022/06/09 03:03:53;;;;;;;13.18;5.80;;;;;;;20.54;66.78;152817.56;1709855;83;20994;-64
2022/06/09 03:06:20;;;;;;;11.00;5.85;;;;;;;20.66;66.71;152846.28;1709749;83;21010;-64
2022/06/09 03:08:49;;;;;;;11.03;5.72;;;;;;;20.76;66.17;152872.44;1709890;83;21464;-64
2022/06/09 03:11:17;;;;;;;10.28;5.15;;;;;;;20.85;65.69;152895.98;1709843;84;21034;-64
2022/06/09 03:13:45;;;;;;;10.78;4.78;;;;;;;20.98;64.75;152927.38;1709753;83;21535;-64
2022/06/09 03:16:13;;;;;;;10.95;4.92;;;;;;;21.13;63.38;152966.59;1709571;84;20998;-64
2022/06/09 03:18:41;;;;;;;13.72;5.15;;;;;;;21.25;61.82;152995.33;1709518;83;21449;-64
2022/06/09 03:21:09;;;;;;;7.15;3.92;;;;;;;21.32;61.11;153014.94;1709703;84;21030;-64
2022/06/09 03:23:36;;;;;;;8.48;4.33;;;;;;;21.45;60.40;153047.61;1709643;83;21161;-59
2022/06/09 03:26:03;;;;;;;6.37;4.12;;;;;;;21.57;59.51;153076.39;1709105;84;21277;-58
2022/06/09 03:28:30;;;;;;;8.38;3.67;;;;;;;21.65;58.92;153097.34;1709426;83;21070;-58
2022/06/09 03:30:59;;;;;;;5.75;3.70;;;;;;;21.75;58.05;153123.47;1709279;84;21097;-58
2022/06/09 03:33:26;;;;;;;9.33;4.50;;;;;;;21.90;57.66;153160.09;1709710;83;21010;-57
2022/06/09 03:35:53;;;;;;;12.73;4.42;;;;;;;22.03;57.67;153192.78;1709930;83;21440;-58
2022/06/09 03:38:20;;;;;;;8.00;4.10;;;;;;;22.14;57.56;153220.25;1709977;83;21169;-58
2022/06/09 03:40:47;;;;;;;13.22;4.58;;;;;;;22.30;57.32;153260.78;1709752;83;21069;-58
2022/06/09 03:43:14;;;;;;;8.33;4.37;;;;;;;22.50;57.00;153311.88;1709512;84;21037;-58
2022/06/09 03:45:42;;;;;;;10.63;4.50;;;;;;;22.66;56.68;153351.08;1709667;84;20998;-58
2022/06/09 03:48:13;;;;;;;7.67;4.47;;;;;;;22.86;56.39;153403.41;1710100;83;21061;-58
2022/06/09 03:50:39;;;;;;;9.03;4.33;;;;;;;23.05;55.81;153450.52;1709880;83;22142;-58
2022/06/09 03:53:06;;;;;;;7.83;4.47;;;;;;;23.12;55.72;153467.53;1713745;83;21009;-58
2022/06/09 03:55:34;;;;;;;6.08;3.50;;;;;;;23.20;55.19;153487.17;1714527;83;21582;-58
2022/06/09 03:58:01;;;;;;;4.62;3.58;;;;;;;23.33;54.56;153521.27;1714634;83;21101;-58
2022/06/09 04:00:31;;;;;;;5.70;3.17;;;;;;;23.49;54.04;153560.50;1714812;83;21120;-58
2022/06/09 04:02:58;;;;;;;4.58;3.12;;;;;;;23.65;53.44;153602.39;1714830;83;21218;-59
2022/06/09 04:05:27;;;;;;;6.95;3.45;;;;;;;23.85;53.09;153653.42;1707407;83;21045;-58
2022/06/09 04:07:54;;;;;;;6.22;3.70;;;;;;;23.96;53.17;153679.64;1707376;84;21002;-58
2022/06/09 04:10:24;;;;;;;7.78;3.80;;;;;;;24.06;53.51;153705.84;1707311;83;21407;-58
2022/06/09 04:12:53;;;;;;;8.40;3.90;;;;;;;24.17;54.14;153733.34;1707333;83;21012;-58
2022/06/09 04:15:21;;;;;;;5.03;3.95;;;;;;;24.19;54.71;153738.58;1707273;84;21261;-58
2022/06/09 04:17:48;;;;;;;9.25;4.10;;;;;;;24.15;55.48;153728.11;1707508;83;21062;-58
2022/06/09 04:20:18;;;;;;;7.78;3.87;;;;;;;24.17;56.23;153733.34;1707534;83;21045;-58
2022/06/09 04:22:46;;;;;;;7.28;3.90;;;;;;;24.18;56.99;153737.28;1707469;84;21046;-58
2022/06/09 04:25:13;;;;;;;8.45;4.65;;;;;;;24.25;57.37;153752.98;1707510;83;21018;-58
2022/06/09 04:27:41;;;;;;;8.68;4.15;;;;;;;24.29;57.26;153764.78;1707574;84;21317;-58
2022/06/09 04:30:09;;;;;;;5.75;4.37;;;;;;;24.25;57.30;153754.33;1707686;83;20954;-57
2022/06/09 04:32:36;;;;;;;5.85;4.00;;;;;;;24.19;57.72;153738.58;1707541;84;21454;-57
2022/06/09 04:35:05;;;;;;;11.48;4.50;;;;;;;24.14;57.51;153725.50;1707310;84;21101;-57
2022/06/09 04:38:33;;;;;;;7.28;4.10;;;;;;;24.08;57.92;153709.80;1707686;84;21053;-56
2022/06/09 04:40:12;;;;;;;6.90;4.00;;;;;;;23.95;58.10;153678.31;1698923;83;21644;-57
2022/06/09 04:42:39;;;;;;;8.75;4.30;;;;;;;23.95;58.84;153678.31;1707769;84;21447;-57
2022/06/09 04:45:08;;;;;;;7.83;4.50;;;;;;;23.96;58.80;153679.64;1707421;84;21463;-58
2022/06/09 04:47:38;;;;;;;7.37;4.75;;;;;;;23.97;59.24;153682.25;1707728;83;21050;-58
2022/06/09 04:50:07;;;;;;;8.23;4.08;;;;;;;23.99;59.44;153687.48;1707515;84;21037;-57
2022/06/09 04:52:34;;;;;;;6.45;3.87;;;;;;;24.02;59.59;153696.72;1707420;83;22155;-58
2022/06/09 04:55:02;;;;;;;8.58;4.20;;;;;;;24.03;60.18;153699.33;1707350;84;20963;-57
2022/06/09 04:57:29;;;;;;;7.75;4.15;;;;;;;24.07;59.99;153707.19;1707446;83;21096;-57
2022/06/09 04:59:56;;;;;;;6.28;4.67;;;;;;;24.01;60.49;153692.72;1707659;84;21086;-57
2022/06/09 05:02:23;;;;;;;7.12;4.15;;;;;;;24.03;60.73;153699.33;1707411;83;21062;-57
2022/06/09 05:04:50;;;;;;;6.58;4.28;;;;;;;24.07;61.25;153707.19;1707412;83;21906;-58
2022/06/09 05:07:18;;;;;;;8.35;3.75;;;;;;;24.12;61.48;153720.25;1707241;84;21062;-57
2022/06/09 05:09:45;;;;;;;4.92;3.80;;;;;;;24.14;61.02;153725.50;1707540;83;21101;-58
2022/06/09 05:12:12;;;;;;;7.78;4.10;;;;;;;24.09;61.36;153712.41;1707413;84;21074;-57
2022/06/09 05:14:41;;;;;;;5.17;3.83;;;;;;;24.01;61.84;153694.09;1707340;83;21000;-57
2022/06/09 05:17:08;;;;;;;6.08;3.92;;;;;;;23.95;62.24;153678.31;1707269;84;21242;-57
2022/06/09 05:19:36;;;;;;;5.83;3.67;;;;;;;23.94;62.60;153675.69;1707226;83;21030;-57
2022/06/09 05:22:03;;;;;;;9.43;3.83;;;;;;;23.95;63.33;153678.31;1707294;83;21421;-58
2022/06/09 05:24:30;;;;;;;5.72;4.12;;;;;;;24.00;63.99;153690.09;1707329;83;21495;-57
2022/06/09 05:26:57;;;;;;;7.33;3.90;;;;;;;24.07;64.49;153707.19;1707298;83;21066;-58
2022/06/09 05:29:24;;;;;;;5.75;3.80;;;;;;;24.09;64.21;153712.41;1707199;83;21148;-58
2022/06/09 05:31:51;;;;;;;5.83;3.50;;;;;;;24.10;64.40;153715.03;1707305;83;21436;-58
2022/06/09 05:34:20;;;;;;;7.08;3.50;;;;;;;24.22;64.67;153745.14;1707316;83;21089;-58
2022/06/09 05:36:47;;;;;;;7.03;3.60;;;;;;;24.41;64.37;153793.56;1707295;83;21034;-58
2022/06/09 05:44:52;;;;;;;9.90;3.60;;;;;;;25.00;64.21;153942.95;1707445;83;20981;-59
2022/06/09 05:47:21;;;;;;;7.90;3.52;;;;;;;25.16;63.64;153983.55;1707367;83;20958;-58
2022/06/09 05:49:49;;;;;;;4.45;3.37;;;;;;;25.28;61.99;154013.69;1707232;83;21002;-57
2022/06/09 05:52:17;;;;;;;5.45;3.85;;;;;;;25.37;58.99;154037.30;1709024;83;21036;-59
2022/06/09 05:54:44;;;;;;;6.55;3.65;;;;;;;25.44;57.86;154054.34;1715259;83;21267;-58
2022/06/09 05:57:13;;;;;;;12.55;4.55;;;;;;;25.49;57.83;154066.14;1714847;83;21069;-58
2022/06/09 05:59:40;;;;;;;7.35;3.58;;;;;;;25.50;57.71;154070.09;1714973;83;21089;-58
2022/06/09 06:02:08;;;;;;;6.95;3.70;;;;;;;25.54;57.83;154080.56;1709649;83;21479;-58
2022/06/09 06:04:36;;;;;;;13.80;4.00;;;;;;;25.63;57.97;154102.86;1715031;83;20997;-58
2022/06/09 06:07:03;;;;;;;8.68;3.98;;;;;;;25.73;58.36;154129.05;1691552;83;21220;-58
2022/06/09 06:09:32;;;;;;;7.90;4.53;;;;;;;25.85;58.17;154157.91;1677628;84;20990;-59
2022/06/09 06:12:03;;;;;;;16.75;4.33;;;;;;;25.87;58.38;154163.14;1682800;84;21372;-58
2022/06/09 06:14:29;;;;;;;10.45;4.87;;;;;;;25.93;58.77;154177.56;1687901;83;21096;-57
2022/06/09 06:16:57;;;;;;;8.38;4.47;;;;;;;25.94;59.20;154180.19;1712042;83;21482;-58
2022/06/09 06:19:24;;;;;;;11.33;4.80;;;;;;;25.88;60.17;154165.75;1685077;85;21961;-58
2022/06/09 06:21:52;;;;;;;8.38;4.78;;;;;;;25.88;60.73;154167.09;1681915;85;20994;-58
2022/06/09 06:24:21;;;;;;;7.67;4.30;;;;;;;25.89;60.82;154168.37;1684074;85;21092;-58
2022/06/09 06:26:49;;;;;;;9.43;4.10;;;;;;;25.95;60.17;154184.09;1682785;83;21050;-58
2022/06/09 06:29:21;;;;;;;8.50;5.03;;;;;;;25.94;58.93;154180.19;1679095;85;21545;-58
2022/06/09 06:31:49;;;;;;;9.40;4.25;;;;;;;25.98;58.24;154190.66;1693713;83;21288;-59
2022/06/09 06:34:17;;;;;;;8.55;3.77;;;;;;;26.08;57.50;154215.56;1679748;85;21053;-59
2022/06/09 06:36:45;;;;;;;9.08;3.60;;;;;;;26.20;56.40;154245.77;1681388;83;21423;-59
2022/06/09 06:39:12;;;;;;;7.12;3.62;;;;;;;26.30;55.58;154271.97;1683736;85;21065;-57
2022/06/09 06:41:39;;;;;;;11.08;3.98;;;;;;;26.37;54.87;154289.02;1680933;85;21103;-58
2022/06/09 06:44:06;;;;;;;8.60;3.42;;;;;;;26.40;54.61;154296.88;1684391;84;21242;-58
2022/06/09 06:46:33;;;;;;;9.78;3.50;;;;;;;26.46;54.90;154313.92;1682456;84;21422;-58
2022/06/09 06:49:00;;;;;;;6.62;3.80;;;;;;;26.55;54.83;154336.22;1679306;85;21013;-58
2022/06/09 06:51:28;;;;;;;12.82;4.42;;;;;;;26.62;54.30;154351.94;1679809;85;21005;-58
2022/06/09 06:53:55;;;;;;;9.08;3.90;;;;;;;26.68;54.13;154369.00;1680960;85;21056;-58
2022/06/09 06:56:23;;;;;;;10.75;4.90;;;;;;;26.79;53.81;154396.53;1682166;84;21459;-58
2022/06/09 06:58:50;;;;;;;12.60;5.28;;;;;;;26.82;53.58;154404.39;1679752;85;21495;-58
2022/06/09 07:01:17;;;;;;;8.75;3.72;;;;;;;26.85;53.68;154411.02;1665018;85;21495;-58
2022/06/09 07:03:45;;;;;;;9.63;4.35;;;;;;;26.87;53.68;154416.27;1644461;87;21085;-58
2022/06/09 07:06:12;;;;;;;9.58;4.22;;;;;;;26.85;53.80;154412.31;1644326;87;21074;-57
2022/06/09 07:08:39;;;;;;;9.78;4.12;;;;;;;26.80;53.89;154399.16;1670998;85;21261;-58
2022/06/09 07:11:07;;;;;;;7.87;4.55;;;;;;;26.78;54.09;154392.63;1649767;85;21067;-58
2022/06/09 07:13:36;;;;;;;11.40;4.78;;;;;;;26.74;54.59;154383.44;1652801;86;21096;-58
2022/06/09 07:16:04;;;;;;;7.55;4.03;;;;;;;26.70;55.07;154374.23;1653798;85;21030;-57
2022/06/09 07:18:32;;;;;;;7.70;4.12;;;;;;;26.60;55.56;154349.31;1674180;85;21060;-58
2022/06/09 07:21:00;;;;;;;6.97;4.12;;;;;;;26.47;55.93;154315.27;1630522;86;21273;-58
2022/06/09 07:23:28;;;;;;;9.68;4.25;;;;;;;26.45;56.66;154310.02;1648111;86;21470;-58
2022/06/09 07:25:55;;;;;;;8.18;4.70;;;;;;;26.49;57.05;154320.50;1648435;86;21057;-58
2022/06/09 07:28:24;;;;;;;9.88;4.78;;;;;;;26.53;57.20;154330.98;1648201;87;21052;-58
2022/06/09 07:30:56;;;;;;;7.62;3.92;;;;;;;26.52;57.47;154328.36;1648262;86;21061;-59
2022/06/09 07:33:20;;;;;;;6.58;3.92;;;;;;;26.52;57.56;154328.36;1648214;86;21494;-58
2022/06/09 07:35:51;;;;;;;9.85;3.85;;;;;;;26.55;57.69;154336.22;1648256;86;21041;-58
2022/06/09 07:38:18;;;;;;;5.22;3.10;;;;;;;26.57;57.53;154341.45;1647418;85;21103;-57
2022/06/09 07:40:46;;;;;;;6.58;3.00;;;;;;;26.58;57.32;154344.08;1648147;86;21030;-58
2022/06/09 07:43:14;;;;;;;5.35;2.92;;;;;;;26.55;57.24;154336.22;1648433;86;21021;-58
2022/06/09 07:45:41;;;;;;;5.92;3.00;;;;;;;26.50;56.99;154323.12;1648463;86;21537;-59
2022/06/09 07:48:09;;;;;;;6.80;3.10;;;;;;;26.45;57.22;154311.31;1648379;87;21065;-58
2022/06/09 07:50:37;;;;;;;8.78;2.98;;;;;;;26.40;57.35;154298.20;1672006;85;20958;-59
2022/06/09 07:53:06;;;;;;;7.28;3.27;;;;;;;26.41;57.69;154300.83;1648395;86;21124;-59
2022/06/09 07:55:33;;;;;;;9.25;3.90;;;;;;;26.41;58.26;154300.83;1624995;88;20993;-59
2022/06/09 07:58:01;;;;;;;6.37;3.33;;;;;;;26.43;58.09;154304.78;1624518;88;21526;-58
2022/06/09 08:00:28;;;;;;;4.95;2.60;;;;;;;26.35;57.82;154283.77;1648191;86;21085;-57
2022/06/09 08:02:57;;;;;;;5.35;2.95;;;;;;;26.22;57.99;154252.34;1651534;86;21057;-58
2022/06/09 08:05:26;;;;;;;5.33;2.75;;;;;;;26.19;58.79;154244.44;1648520;87;21810;-57
2022/06/09 08:07:53;;;;;;;6.45;2.67;;;;;;;26.19;58.46;154244.44;1647838;86;21414;-59
2022/06/09 08:10:23;;;;;;;6.80;2.70;;;;;;;26.19;58.36;154244.44;1648288;86;22158;-59
2022/06/09 08:12:56;;;;;;;3.58;2.20;;;;;;;26.15;58.28;154235.23;1648223;86;21092;-58
2022/06/09 08:15:24;;;;;;;8.03;2.12;;;;;;;26.11;57.81;154224.75;1648372;86;21477;-59
2022/06/09 08:17:56;;;;;;;6.67;2.40;;;;;;;26.10;58.62;154220.81;1647842;86;21065;-59
2022/06/09 08:20:24;;;;;;;6.03;2.45;;;;;;;26.12;58.15;154226.05;1648106;86;21011;-57
2022/06/09 08:22:51;;;;;;;3.67;2.02;;;;;;;26.05;58.61;154207.72;1648388;86;21295;-58
2022/06/09 08:25:19;;;;;;;4.20;2.20;;;;;;;25.95;58.03;154184.09;1648317;86;21100;-58
2022/06/09 08:27:48;;;;;;;3.52;2.02;;;;;;;25.88;58.61;154167.09;1648397;86;21065;-58
2022/06/09 08:30:16;;;;;;;4.20;1.87;;;;;;;25.86;58.68;154160.52;1648399;86;21053;-58
2022/06/09 08:32:42;;;;;;;7.87;2.25;;;;;;;25.87;58.61;154163.14;1681983;85;21088;-59
2022/06/09 08:35:15;;;;;;;4.03;1.90;;;;;;;25.82;58.81;154150.03;1674614;85;21435;-58
2022/06/09 08:37:45;;;;;;;7.80;2.35;;;;;;;25.79;58.61;154142.19;1668055;85;21394;-59
2022/06/09 08:40:13;;;;;;;6.03;2.45;;;;;;;25.78;59.30;154139.56;1681517;85;21025;-59
2022/06/09 08:43:01;;;;;;;5.37;2.08;;;;;;;25.81;58.52;154147.42;1681925;85;21064;-59
2022/06/09 08:45:38;;;;;;;4.62;1.62;;;;;;;25.83;58.73;154153.94;1682030;85;21503;-58
2022/06/09 08:48:08;;;;;;;2.70;1.95;;;;;;;25.85;58.78;154157.91;1648238;86;21215;-58
2022/06/09 08:50:41;;;;;;;7.37;1.72;;;;;;;25.86;59.77;154161.84;1630717;86;21049;-57
2022/06/09 08:53:29;;;;;;;7.15;1.80;;;;;;;25.89;59.78;154168.37;1631822;86;21262;-57
2022/06/09 08:56:08;;;;;;;4.85;1.90;;;;;;;25.93;60.15;154178.84;1653029;86;21112;-58
2022/06/09 08:58:47;;;;;;;3.55;1.82;;;;;;;25.94;60.72;154180.19;1653150;86;21082;-58
2022/06/09 09:01:38;;;;;;;3.50;1.87;;;;;;;25.97;60.32;154188.05;1627049;86;21434;-58
2022/06/09 09:04:25;;;;;;;4.05;2.00;;;;;;;26.04;59.86;154206.38;1672543;84;21084;-64
2022/06/09 09:07:09;;;;;;;2.92;1.70;;;;;;;26.15;60.54;154235.23;1668311;85;21475;-63
2022/06/09 09:09:36;;;;;;;3.97;1.73;;;;;;;26.17;60.12;154240.53;1694930;84;21022;-64
2022/06/09 09:12:38;;;;;;;3.12;1.55;;;;;;;26.16;60.53;154237.91;1706804;82;21345;-64
2022/06/09 09:15:18;;;;;;;3.25;1.77;;;;;;;26.18;59.42;154241.81;1676323;84;21476;-64
2022/06/09 09:17:57;;;;;;;7.72;1.82;;;;;;;26.28;59.92;154268.06;1673117;85;21018;-64
2022/06/09 09:20:35;;;;;;;5.08;1.87;;;;;;;26.35;60.97;154285.11;1675249;84;21031;-63
2022/06/09 09:23:11;;;;;;;4.95;1.82;;;;;;;26.24;61.30;154257.58;1672724;85;21078;-64
2022/06/09 09:25:58;;;;;;;5.20;1.60;;;;;;;26.19;61.61;154244.44;1683594;84;21375;-63
2022/06/09 09:28:32;;;;;;;3.40;1.70;;;;;;;26.29;61.14;154270.67;1665512;84;21788;-64
2022/06/09 09:31:25;;;;;;;3.55;1.70;;;;;;;26.45;60.09;154310.02;1673371;84;21094;-64
2022/06/09 09:33:52;;;;;;;5.25;1.67;;;;;;;26.46;58.92;154312.64;1672748;85;21070;-64
2022/06/09 09:36:23;;;;;;;3.35;1.40;;;;;;;26.46;59.44;154312.64;1672713;84;21057;-59
2022/06/09 09:39:02;;;;;;;2.50;1.40;;;;;;;26.39;59.65;154294.25;1675357;84;20959;-58
2022/06/09 09:41:33;;;;;;;5.42;1.70;;;;;;;26.31;58.21;154275.91;1693692;84;21456;-58
2022/06/09 09:44:16;;;;;;;3.00;1.77;;;;;;;26.28;58.61;154268.06;1687229;84;21106;-65
2022/06/09 09:46:43;;;;;;;3.45;1.77;;;;;;;26.23;58.32;154254.95;1707419;82;21051;-64
2022/06/09 09:49:18;;;;;;;1.90;1.50;;;;;;;26.26;59.41;154261.48;1651480;85;20941;-64
2022/06/09 09:51:46;;;;;;;2.50;1.50;;;;;;;26.25;60.14;154260.20;1659608;85;21156;-64
2022/06/09 09:54:21;;;;;;;3.45;1.90;;;;;;;26.16;61.04;154236.52;1682722;84;21248;-63
2022/06/09 09:56:48;;;;;;;2.83;1.50;;;;;;;26.12;60.83;154226.05;1681580;85;20976;-65
2022/06/09 09:59:21;;;;;;;3.22;1.70;;;;;;;26.15;60.36;154233.91;1683809;83;21055;-65
2022/06/09 10:10:17;;;;;;;3.83;1.83;;;;;;;26.28;58.51;154268.06;1657834;86;21133;-65
2022/06/09 10:12:44;;;;;;;2.62;1.60;;;;;;;26.36;57.58;154286.39;1659571;85;21099;-65
2022/06/09 10:15:16;;;;;;;2.87;1.60;;;;;;;26.35;56.85;154285.11;1660067;86;20994;-65
2022/06/09 10:18:16;;;;;;;3.52;1.22;;;;;;;26.29;56.26;154270.67;1668213;86;21027;-65
2022/06/09 10:20:53;;;;;;;2.25;1.50;;;;;;;26.28;55.45;154268.06;1665415;84;21931;-64
2022/06/09 10:23:54;;;;;;;1.50;1.25;;;;;;;26.29;53.81;154270.67;1664985;86;21492;-64
2022/06/09 10:26:30;;;;;;;3.30;1.42;;;;;;;26.31;54.72;154275.91;1665446;86;21044;-63
2022/06/09 10:29:22;;;;;;;2.60;1.42;;;;;;;26.33;54.35;154279.88;1670745;83;21514;-64
2022/06/09 10:32:08;;;;;;;3.83;1.35;;;;;;;26.27;54.39;154265.44;1682036;85;20989;-65
2022/06/09 10:34:52;;;;;;;2.15;1.40;;;;;;;26.32;53.50;154277.25;1685026;83;21242;-65
2022/06/09 10:37:27;;;;;;;2.15;1.40;;;;;;;26.38;52.92;154292.97;1681694;85;21064;-64
2022/06/09 10:40:02;;;;;;;1.92;1.37;;;;;;;26.39;52.57;154294.25;1708592;83;21030;-64
2022/06/09 10:42:52;;;;;;;3.85;1.37;;;;;;;26.38;52.99;154291.63;1659945;86;20985;-64
2022/06/09 10:45:52;;;;;;;6.47;1.50;;;;;;;26.31;54.12;154275.91;1678598;85;21068;-63
2022/06/09 10:55:18;;;;;;;2.08;1.17;;;;;;;26.29;50.32;154270.67;1683436;85;21064;-63
2022/06/09 10:58:16;;;;;;;2.10;1.40;;;;;;;26.25;51.06;154258.86;1684639;83;21505;-64
2022/06/09 11:00:47;;;;;;;2.08;1.27;;;;;;;26.23;52.18;154254.95;1684091;85;21029;-65
2022/06/09 11:03:19;;;;;;;2.65;1.10;;;;;;;26.24;53.94;154256.25;1687182;84;21251;-64
2022/06/09 11:06:30;;;;;;;1.72;1.20;;;;;;;26.16;53.44;154236.52;1682376;83;20949;-64
2022/06/09 11:09:15;;;;;;;4.10;1.60;;;;;;;25.98;53.56;154190.66;1682031;85;21135;-64
2022/06/09 11:12:07;;;;;;;2.77;1.30;;;;;;;25.87;54.87;154163.14;1682062;85;21061;-64
2022/06/09 11:15:06;;;;;;;2.60;1.40;;;;;;;25.79;54.59;154142.19;1656632;85;21090;-64
2022/06/09 11:17:54;;;;;;;4.50;1.30;;;;;;;25.69;53.52;154118.56;1686539;84;21221;-64
2022/06/09 11:20:48;;;;;;;2.17;1.10;;;;;;;25.60;51.87;154095.00;1686774;85;21038;-64
2022/06/09 11:23:38;;;;;;;0.98;0.95;;;;;;;25.62;50.99;154098.91;1686336;84;21023;-64
2022/06/09 11:26:23;;;;;;;1.77;1.10;;;;;;;25.61;50.43;154097.63;1634632;84;21065;-64
2022/06/09 11:29:25;;;;;;;1.60;1.17;;;;;;;25.60;50.06;154095.00;1721788;83;21449;-64
2022/06/09 11:31:58;;;;;;;1.57;1.00;;;;;;;25.57;50.87;154087.14;1684102;83;22336;-64
2022/06/09 11:34:40;;;;;;;1.92;1.20;;;;;;;25.46;50.99;154059.58;1681892;85;21060;-65
2022/06/09 11:37:27;;;;;;;1.45;1.22;;;;;;;25.44;52.11;154054.34;1664795;86;21043;-64
2022/06/09 11:40:14;;;;;;;1.40;1.17;;;;;;;25.41;53.41;154047.77;1628083;85;21063;-64
2022/06/09 11:42:58;;;;;;;4.10;1.40;;;;;;;25.35;54.66;154032.06;1685571;84;21075;-64
2022/06/09 11:45:45;;;;;;;2.83;1.37;;;;;;;25.37;54.62;154037.30;1682858;85;22194;-64
2022/06/09 11:48:33;;;;;;;1.87;1.22;;;;;;;25.42;53.69;154050.39;1696231;83;21057;-64
2022/06/09 11:51:01;;;;;;;1.77;1.12;;;;;;;25.46;53.75;154060.86;1708920;83;21095;-64
2022/06/09 11:53:30;;;;;;;2.35;1.12;;;;;;;25.54;52.93;154080.56;1696460;84;21064;-65
2022/06/09 11:56:36;;;;;;;2.12;1.20;;;;;;;25.63;52.36;154102.86;1684467;85;21020;-64
2022/06/09 11:59:16;;;;;;;1.27;1.15;;;;;;;25.78;51.52;154140.84;1684432;85;21861;-64
2022/06/09 12:02:01;;;;;;;1.47;1.10;;;;;;;25.95;51.23;154184.09;1659178;85;21525;-65
2022/06/09 12:04:49;;;;;;;1.85;1.20;;;;;;;25.97;50.98;154189.33;1693801;83;21005;-65
2022/06/09 12:07:30;;;;;;;1.20;1.10;;;;;;;25.97;51.06;154189.33;1714714;83;22161;-65
2022/06/09 12:10:45;;;;;;;1.30;1.10;;;;;;;25.92;51.34;154176.23;1691058;83;21491;-64
2022/06/09 12:13:23;;;;;;;2.17;1.30;;;;;;;25.93;51.55;154178.84;1675925;84;21599;-64